sensor_id;sensor_type;location;lat;lon;timestamp;P1;durP1;ratioP1;P2;durP2;ratioP2
71148;SDS011;59072;42.144;25.200;2023-02-22T00:00:16;15.13;;;7.80;;
71148;SDS011;59072;42.144;25.200;2023-02-22T00:02:44;17.10;;;8.18;;
71148;SDS011;59072;42.144;25.200;2023-02-22T00:05:10;12.00;;;6.50;;
71148;SDS011;59072;42.144;25.200;2023-02-22T00:07:39;14.52;;;7.03;;
71148;SDS011;59072;42.144;25.200;2023-02-22T00:10:06;12.98;;;6.13;;
71148;SDS011;59072;42.144;25.200;2023-02-22T00:12:37;11.45;;;5.82;;
71148;SDS011;59072;42.144;25.200;2023-02-22T00:15:06;12.45;;;5.97;;
71148;SDS011;59072;42.144;25.200;2023-02-22T00:17:32;12.32;;;6.05;;
71148;SDS011;59072;42.144;25.200;2023-02-22T00:19:58;9.60;;;5.60;;
71148;SDS011;59072;42.144;25.200;2023-02-22T00:22:23;14.15;;;5.72;;
71148;SDS011;59072;42.144;25.200;2023-02-22T00:24:49;13.85;;;6.20;;
71148;SDS011;59072;42.144;25.200;2023-02-22T00:27:14;10.95;;;5.85;;
71148;SDS011;59072;42.144;25.200;2023-02-22T00:29:44;11.70;;;5.63;;
71148;SDS011;59072;42.144;25.200;2023-02-22T00:32:10;14.13;;;6.35;;
71148;SDS011;59072;42.144;25.200;2023-02-22T00:34:39;11.38;;;6.00;;
71148;SDS011;59072;42.144;25.200;2023-02-22T00:37:05;11.63;;;5.90;;
71148;SDS011;59072;42.144;25.200;2023-02-22T00:39:30;11.65;;;6.30;;
71148;SDS011;59072;42.144;25.200;2023-02-22T00:41:56;11.60;;;6.53;;
71148;SDS011;59072;42.144;25.200;2023-02-22T00:44:21;10.88;;;6.03;;
71148;SDS011;59072;42.144;25.200;2023-02-22T00:46:47;10.50;;;6.47;;
71148;SDS011;59072;42.144;25.200;2023-02-22T00:49:14;13.05;;;6.53;;
71148;SDS011;59072;42.144;25.200;2023-02-22T00:51:40;11.73;;;6.47;;
71148;SDS011;59072;42.144;25.200;2023-02-22T00:54:05;12.65;;;6.30;;
71148;SDS011;59072;42.144;25.200;2023-02-22T00:56:34;12.70;;;7.13;;
71148;SDS011;59072;42.144;25.200;2023-02-22T00:58:59;12.27;;;6.68;;
71148;SDS011;59072;42.144;25.200;2023-02-22T01:01:28;14.20;;;7.10;;
71148;SDS011;59072;42.144;25.200;2023-02-22T01:03:54;13.85;;;6.88;;
71148;SDS011;59072;42.144;25.200;2023-02-22T01:06:20;11.60;;;7.10;;
71148;SDS011;59072;42.144;25.200;2023-02-22T01:08:47;12.88;;;6.78;;
71148;SDS011;59072;42.144;25.200;2023-02-22T01:11:13;11.82;;;7.30;;
71148;SDS011;59072;42.144;25.200;2023-02-22T01:13:40;24.77;;;7.97;;
71148;SDS011;59072;42.144;25.200;2023-02-22T01:16:06;14.48;;;7.57;;
71148;SDS011;59072;42.144;25.200;2023-02-22T01:18:35;16.95;;;8.15;;
71148;SDS011;59072;42.144;25.200;2023-02-22T01:21:01;14.75;;;7.60;;
71148;SDS011;59072;42.144;25.200;2023-02-22T01:23:29;17.17;;;8.32;;
71148;SDS011;59072;42.144;25.200;2023-02-22T01:25:55;18.17;;;7.78;;
71148;SDS011;59072;42.144;25.200;2023-02-22T01:28:21;14.27;;;7.60;;
71148;SDS011;59072;42.144;25.200;2023-02-22T01:30:47;20.02;;;8.80;;
71148;SDS011;59072;42.144;25.200;2023-02-22T01:33:13;17.90;;;8.57;;
71148;SDS011;59072;42.144;25.200;2023-02-22T01:35:39;19.98;;;9.55;;
71148;SDS011;59072;42.144;25.200;2023-02-22T01:38:06;21.95;;;9.73;;
71148;SDS011;59072;42.144;25.200;2023-02-22T01:40:35;20.53;;;9.87;;
71148;SDS011;59072;42.144;25.200;2023-02-22T01:48:00;19.83;;;9.25;;
71148;SDS011;59072;42.144;25.200;2023-02-22T01:50:30;17.90;;;8.35;;
71148;SDS011;59072;42.144;25.200;2023-02-22T01:53:01;21.27;;;10.00;;
71148;SDS011;59072;42.144;25.200;2023-02-22T01:55:28;18.25;;;9.18;;
71148;SDS011;59072;42.144;25.200;2023-02-22T01:57:55;17.33;;;8.88;;
71148;SDS011;59072;42.144;25.200;2023-02-22T02:00:21;18.90;;;9.20;;
71148;SDS011;59072;42.144;25.200;2023-02-22T02:02:49;19.83;;;8.32;;
71148;SDS011;59072;42.144;25.200;2023-02-22T02:05:26;19.15;;;9.32;;
71148;SDS011;59072;42.144;25.200;2023-02-22T02:07:55;18.67;;;8.68;;
71148;SDS011;59072;42.144;25.200;2023-02-22T02:10:22;17.35;;;9.45;;
71148;SDS011;59072;42.144;25.200;2023-02-22T02:12:48;17.80;;;9.23;;
71148;SDS011;59072;42.144;25.200;2023-02-22T02:17:53;25.00;;;11.83;;
71148;SDS011;59072;42.144;25.200;2023-02-22T02:32:18;17.83;;;8.55;;
71148;SDS011;59072;42.144;25.200;2023-02-22T02:40:49;13.77;;;7.75;;
71148;SDS011;59072;42.144;25.200;2023-02-22T02:46:00;19.10;;;8.43;;
71148;SDS011;59072;42.144;25.200;2023-02-22T02:48:33;18.02;;;8.85;;
71148;SDS011;59072;42.144;25.200;2023-02-22T02:51:01;23.50;;;9.98;;
71148;SDS011;59072;42.144;25.200;2023-02-22T02:53:35;26.30;;;11.85;;
71148;SDS011;59072;42.144;25.200;2023-02-22T02:56:03;31.33;;;14.75;;
71148;SDS011;59072;42.144;25.200;2023-02-22T03:00:57;40.88;;;16.75;;
71148;SDS011;59072;42.144;25.200;2023-02-22T03:09:05;26.17;;;12.93;;
71148;SDS011;59072;42.144;25.200;2023-02-22T03:11:50;20.95;;;10.50;;
71148;SDS011;59072;42.144;25.200;2023-02-22T03:17:22;13.35;;;6.20;;
71148;SDS011;59072;42.144;25.200;2023-02-22T03:20:03;17.25;;;10.07;;
71148;SDS011;59072;42.144;25.200;2023-02-22T03:22:36;14.23;;;7.30;;
71148;SDS011;59072;42.144;25.200;2023-02-22T03:25:36;17.15;;;8.40;;
71148;SDS011;59072;42.144;25.200;2023-02-22T03:28:08;17.13;;;8.27;;
71148;SDS011;59072;42.144;25.200;2023-02-22T03:33:03;14.18;;;7.07;;
71148;SDS011;59072;42.144;25.200;2023-02-22T03:35:56;13.93;;;7.13;;
71148;SDS011;59072;42.144;25.200;2023-02-22T03:38:26;15.98;;;9.27;;
71148;SDS011;59072;42.144;25.200;2023-02-22T03:40:59;14.63;;;9.02;;
71148;SDS011;59072;42.144;25.200;2023-02-22T03:43:42;12.23;;;7.87;;
71148;SDS011;59072;42.144;25.200;2023-02-22T03:46:12;15.55;;;6.82;;
71148;SDS011;59072;42.144;25.200;2023-02-22T03:48:48;12.67;;;6.73;;
71148;SDS011;59072;42.144;25.200;2023-02-22T03:51:18;14.13;;;7.05;;
71148;SDS011;59072;42.144;25.200;2023-02-22T03:53:45;10.40;;;6.78;;
71148;SDS011;59072;42.144;25.200;2023-02-22T03:56:12;18.63;;;7.93;;
71148;SDS011;59072;42.144;25.200;2023-02-22T03:58:44;12.23;;;6.25;;
71148;SDS011;59072;42.144;25.200;2023-02-22T04:01:14;22.23;;;14.70;;
71148;SDS011;59072;42.144;25.200;2023-02-22T04:03:40;17.50;;;9.20;;
71148;SDS011;59072;42.144;25.200;2023-02-22T04:06:06;13.80;;;7.57;;
71148;SDS011;59072;42.144;25.200;2023-02-22T04:08:32;21.20;;;10.68;;
71148;SDS011;59072;42.144;25.200;2023-02-22T04:10:58;35.30;;;16.98;;
71148;SDS011;59072;42.144;25.200;2023-02-22T04:13:26;50.30;;;21.80;;
71148;SDS011;59072;42.144;25.200;2023-02-22T04:15:52;53.67;;;21.55;;
71148;SDS011;59072;42.144;25.200;2023-02-22T04:18:17;50.75;;;22.17;;
71148;SDS011;59072;42.144;25.200;2023-02-22T04:20:43;62.33;;;26.48;;
71148;SDS011;59072;42.144;25.200;2023-02-22T04:23:08;74.28;;;29.73;;
71148;SDS011;59072;42.144;25.200;2023-02-22T04:25:34;60.90;;;25.33;;
71148;SDS011;59072;42.144;25.200;2023-02-22T04:28:00;42.05;;;20.23;;
71148;SDS011;59072;42.144;25.200;2023-02-22T04:30:25;39.63;;;21.15;;
71148;SDS011;59072;42.144;25.200;2023-02-22T04:32:52;74.47;;;39.58;;
71148;SDS011;59072;42.144;25.200;2023-02-22T04:35:17;66.63;;;36.67;;
71148;SDS011;59072;42.144;25.200;2023-02-22T04:37:43;113.32;;;50.95;;
71148;SDS011;59072;42.144;25.200;2023-02-22T04:40:08;35.90;;;17.67;;
71148;SDS011;59072;42.144;25.200;2023-02-22T04:42:35;29.25;;;14.95;;
71148;SDS011;59072;42.144;25.200;2023-02-22T04:45:02;18.92;;;10.25;;
71148;SDS011;59072;42.144;25.200;2023-02-22T04:47:28;19.70;;;9.27;;
71148;SDS011;59072;42.144;25.200;2023-02-22T04:49:54;21.38;;;9.40;;
71148;SDS011;59072;42.144;25.200;2023-02-22T04:52:19;17.80;;;9.40;;
71148;SDS011;59072;42.144;25.200;2023-02-22T04:54:45;22.55;;;10.30;;
71148;SDS011;59072;42.144;25.200;2023-02-22T04:57:11;15.18;;;8.35;;
71148;SDS011;59072;42.144;25.200;2023-02-22T04:59:36;13.23;;;7.75;;
71148;SDS011;59072;42.144;25.200;2023-02-22T05:02:02;164.05;;;52.30;;
71148;SDS011;59072;42.144;25.200;2023-02-22T05:04:27;24.92;;;12.77;;
71148;SDS011;59072;42.144;25.200;2023-02-22T05:06:53;20.63;;;11.38;;
71148;SDS011;59072;42.144;25.200;2023-02-22T05:09:19;26.50;;;13.10;;
71148;SDS011;59072;42.144;25.200;2023-02-22T05:14:13;41.80;;;21.02;;
71148;SDS011;59072;42.144;25.200;2023-02-22T05:16:38;29.00;;;16.85;;
71148;SDS011;59072;42.144;25.200;2023-02-22T05:19:04;31.83;;;15.75;;
71148;SDS011;59072;42.144;25.200;2023-02-22T05:21:29;273.27;;;122.50;;
71148;SDS011;59072;42.144;25.200;2023-02-22T05:23:55;154.73;;;66.03;;
71148;SDS011;59072;42.144;25.200;2023-02-22T05:26:21;473.15;;;164.73;;
71148;SDS011;59072;42.144;25.200;2023-02-22T05:28:46;182.13;;;61.30;;
71148;SDS011;59072;42.144;25.200;2023-02-22T05:31:12;189.50;;;98.55;;
71148;SDS011;59072;42.144;25.200;2023-02-22T05:33:40;92.60;;;39.58;;
71148;SDS011;59072;42.144;25.200;2023-02-22T05:36:05;41.38;;;15.07;;
71148;SDS011;59072;42.144;25.200;2023-02-22T05:38:32;26.27;;;12.43;;
71148;SDS011;59072;42.144;25.200;2023-02-22T05:40:58;23.55;;;10.70;;
71148;SDS011;59072;42.144;25.200;2023-02-22T05:43:24;27.67;;;11.27;;
71148;SDS011;59072;42.144;25.200;2023-02-22T05:45:52;39.05;;;17.50;;
71148;SDS011;59072;42.144;25.200;2023-02-22T05:48:17;46.95;;;23.63;;
71148;SDS011;59072;42.144;25.200;2023-02-22T05:50:42;38.53;;;20.45;;
71148;SDS011;59072;42.144;25.200;2023-02-22T05:53:08;42.78;;;19.48;;
71148;SDS011;59072;42.144;25.200;2023-02-22T05:55:34;40.35;;;21.05;;
71148;SDS011;59072;42.144;25.200;2023-02-22T05:57:59;43.22;;;21.42;;
71148;SDS011;59072;42.144;25.200;2023-02-22T06:00:27;39.55;;;20.13;;
71148;SDS011;59072;42.144;25.200;2023-02-22T06:02:58;39.50;;;19.52;;
71148;SDS011;59072;42.144;25.200;2023-02-22T06:05:25;40.35;;;21.88;;
71148;SDS011;59072;42.144;25.200;2023-02-22T06:07:51;58.53;;;27.67;;
71148;SDS011;59072;42.144;25.200;2023-02-22T06:10:18;144.95;;;55.20;;
71148;SDS011;59072;42.144;25.200;2023-02-22T06:12:44;91.32;;;35.28;;
71148;SDS011;59072;42.144;25.200;2023-02-22T06:15:10;45.70;;;22.63;;
71148;SDS011;59072;42.144;25.200;2023-02-22T06:17:35;41.58;;;21.48;;
71148;SDS011;59072;42.144;25.200;2023-02-22T06:20:01;73.97;;;31.60;;
71148;SDS011;59072;42.144;25.200;2023-02-22T06:22:27;36.08;;;22.15;;
71148;SDS011;59072;42.144;25.200;2023-02-22T06:24:52;48.42;;;25.88;;
71148;SDS011;59072;42.144;25.200;2023-02-22T06:27:18;87.38;;;50.72;;
71148;SDS011;59072;42.144;25.200;2023-02-22T06:29:44;94.40;;;62.75;;
71148;SDS011;59072;42.144;25.200;2023-02-22T06:32:11;110.07;;;51.15;;
71148;SDS011;59072;42.144;25.200;2023-02-22T06:34:37;176.07;;;84.03;;
71148;SDS011;59072;42.144;25.200;2023-02-22T06:37:02;25.38;;;13.57;;
71148;SDS011;59072;42.144;25.200;2023-02-22T06:39:28;113.70;;;48.20;;
71148;SDS011;59072;42.144;25.200;2023-02-22T06:41:53;66.75;;;32.97;;
71148;SDS011;59072;42.144;25.200;2023-02-22T06:44:20;53.08;;;27.15;;
71148;SDS011;59072;42.144;25.200;2023-02-22T06:46:46;30.83;;;16.95;;
71148;SDS011;59072;42.144;25.200;2023-02-22T06:49:16;30.38;;;17.65;;
71148;SDS011;59072;42.144;25.200;2023-02-22T06:51:42;32.35;;;19.15;;
71148;SDS011;59072;42.144;25.200;2023-02-22T06:54:07;38.20;;;19.40;;
71148;SDS011;59072;42.144;25.200;2023-02-22T06:56:33;30.65;;;18.33;;
71148;SDS011;59072;42.144;25.200;2023-02-22T06:58:59;41.55;;;25.27;;
71148;SDS011;59072;42.144;25.200;2023-02-22T07:01:26;37.85;;;19.05;;
71148;SDS011;59072;42.144;25.200;2023-02-22T07:03:52;37.42;;;21.05;;
71148;SDS011;59072;42.144;25.200;2023-02-22T07:06:17;35.05;;;20.02;;
71148;SDS011;59072;42.144;25.200;2023-02-22T07:08:43;40.90;;;24.75;;
71148;SDS011;59072;42.144;25.200;2023-02-22T07:11:08;37.88;;;19.58;;
71148;SDS011;59072;42.144;25.200;2023-02-22T07:13:34;40.08;;;20.67;;
71148;SDS011;59072;42.144;25.200;2023-02-22T07:16:01;38.38;;;19.63;;
71148;SDS011;59072;42.144;25.200;2023-02-22T07:18:27;29.00;;;14.98;;
71148;SDS011;59072;42.144;25.200;2023-02-22T07:20:52;20.25;;;12.55;;
71148;SDS011;59072;42.144;25.200;2023-02-22T07:23:18;23.55;;;12.98;;
71148;SDS011;59072;42.144;25.200;2023-02-22T07:25:46;24.33;;;14.60;;
71148;SDS011;59072;42.144;25.200;2023-02-22T07:28:12;19.45;;;12.05;;
71148;SDS011;59072;42.144;25.200;2023-02-22T07:30:37;19.58;;;11.80;;
71148;SDS011;59072;42.144;25.200;2023-02-22T07:33:04;22.77;;;12.70;;
71148;SDS011;59072;42.144;25.200;2023-02-22T07:35:32;20.88;;;11.50;;
71148;SDS011;59072;42.144;25.200;2023-02-22T07:38:02;21.80;;;12.70;;
71148;SDS011;59072;42.144;25.200;2023-02-22T07:40:30;20.88;;;11.75;;
71148;SDS011;59072;42.144;25.200;2023-02-22T07:43:00;23.73;;;12.10;;
71148;SDS011;59072;42.144;25.200;2023-02-22T07:45:33;19.38;;;11.57;;
71148;SDS011;59072;42.144;25.200;2023-02-22T07:48:00;16.35;;;8.88;;
71148;SDS011;59072;42.144;25.200;2023-02-22T07:50:28;19.55;;;9.85;;
71148;SDS011;59072;42.144;25.200;2023-02-22T07:52:55;17.77;;;10.27;;
71148;SDS011;59072;42.144;25.200;2023-02-22T07:55:26;19.23;;;11.77;;
71148;SDS011;59072;42.144;25.200;2023-02-22T07:57:56;19.17;;;7.45;;
71148;SDS011;59072;42.144;25.200;2023-02-22T08:00:30;54.13;;;22.83;;
71148;SDS011;59072;42.144;25.200;2023-02-22T08:03:04;26.40;;;11.85;;
71148;SDS011;59072;42.144;25.200;2023-02-22T08:05:32;20.38;;;12.00;;
71148;SDS011;59072;42.144;25.200;2023-02-22T08:07:59;20.83;;;11.55;;
71148;SDS011;59072;42.144;25.200;2023-02-22T08:10:27;17.92;;;10.15;;
71148;SDS011;59072;42.144;25.200;2023-02-22T08:12:55;16.63;;;7.55;;
71148;SDS011;59072;42.144;25.200;2023-02-22T08:17:50;14.85;;;7.75;;
71148;SDS011;59072;42.144;25.200;2023-02-22T08:20:17;12.65;;;5.55;;
71148;SDS011;59072;42.144;25.200;2023-02-22T08:22:43;12.95;;;6.22;;
71148;SDS011;59072;42.144;25.200;2023-02-22T08:25:09;9.73;;;5.38;;
71148;SDS011;59072;42.144;25.200;2023-02-22T08:27:35;12.10;;;5.85;;
71148;SDS011;59072;42.144;25.200;2023-02-22T08:30:01;10.23;;;5.07;;
71148;SDS011;59072;42.144;25.200;2023-02-22T08:32:26;7.90;;;5.05;;
71148;SDS011;59072;42.144;25.200;2023-02-22T08:34:52;9.45;;;5.07;;
71148;SDS011;59072;42.144;25.200;2023-02-22T08:37:18;9.68;;;4.45;;
71148;SDS011;59072;42.144;25.200;2023-02-22T08:39:43;12.30;;;4.10;;
71148;SDS011;59072;42.144;25.200;2023-02-22T08:42:09;8.65;;;4.63;;
71148;SDS011;59072;42.144;25.200;2023-02-22T08:44:35;12.80;;;7.88;;
71148;SDS011;59072;42.144;25.200;2023-02-22T08:47:01;11.70;;;5.03;;
71148;SDS011;59072;42.144;25.200;2023-02-22T08:49:27;9.13;;;5.18;;
71148;SDS011;59072;42.144;25.200;2023-02-22T08:51:52;8.68;;;4.57;;
71148;SDS011;59072;42.144;25.200;2023-02-22T08:54:18;9.00;;;4.32;;
71148;SDS011;59072;42.144;25.200;2023-02-22T08:56:43;9.32;;;4.72;;
71148;SDS011;59072;42.144;25.200;2023-02-22T08:59:09;9.27;;;4.45;;
71148;SDS011;59072;42.144;25.200;2023-02-22T09:01:34;10.70;;;6.28;;
71148;SDS011;59072;42.144;25.200;2023-02-22T09:04:00;8.23;;;3.97;;
71148;SDS011;59072;42.144;25.200;2023-02-22T09:06:26;7.85;;;4.28;;
71148;SDS011;59072;42.144;25.200;2023-02-22T09:08:52;9.80;;;4.38;;
71148;SDS011;59072;42.144;25.200;2023-02-22T09:11:17;7.50;;;3.60;;
71148;SDS011;59072;42.144;25.200;2023-02-22T09:13:43;7.00;;;3.67;;
71148;SDS011;59072;42.144;25.200;2023-02-22T09:18:36;6.75;;;2.35;;
71148;SDS011;59072;42.144;25.200;2023-02-22T09:21:02;6.60;;;2.78;;
71148;SDS011;59072;42.144;25.200;2023-02-22T09:23:28;4.95;;;1.90;;
71148;SDS011;59072;42.144;25.200;2023-02-22T09:25:54;7.50;;;2.40;;
71148;SDS011;59072;42.144;25.200;2023-02-22T09:28:20;6.30;;;2.42;;
71148;SDS011;59072;42.144;25.200;2023-02-22T09:30:45;7.05;;;2.70;;
71148;SDS011;59072;42.144;25.200;2023-02-22T09:33:13;6.43;;;2.70;;
71148;SDS011;59072;42.144;25.200;2023-02-22T09:35:41;6.07;;;2.00;;
71148;SDS011;59072;42.144;25.200;2023-02-22T09:38:10;7.53;;;2.58;;
71148;SDS011;59072;42.144;25.200;2023-02-22T09:40:42;4.03;;;1.92;;
71148;SDS011;59072;42.144;25.200;2023-02-22T09:48:26;4.80;;;2.40;;
71148;SDS011;59072;42.144;25.200;2023-02-22T09:50:56;5.78;;;1.75;;
71148;SDS011;59072;42.144;25.200;2023-02-22T09:53:34;3.17;;;1.42;;
71148;SDS011;59072;42.144;25.200;2023-02-22T09:56:13;4.60;;;1.92;;
71148;SDS011;59072;42.144;25.200;2023-02-22T09:58:43;5.80;;;1.60;;
71148;SDS011;59072;42.144;25.200;2023-02-22T10:07:00;3.80;;;1.10;;
71148;SDS011;59072;42.144;25.200;2023-02-22T10:09:30;4.28;;;1.50;;
71148;SDS011;59072;42.144;25.200;2023-02-22T10:12:06;4.30;;;1.40;;
71148;SDS011;59072;42.144;25.200;2023-02-22T10:20:23;4.72;;;1.20;;
71148;SDS011;59072;42.144;25.200;2023-02-22T10:25:58;2.50;;;1.17;;
71148;SDS011;59072;42.144;25.200;2023-02-22T10:28:38;2.38;;;1.10;;
71148;SDS011;59072;42.144;25.200;2023-02-22T10:31:18;2.15;;;0.90;;
71148;SDS011;59072;42.144;25.200;2023-02-22T10:33:47;1.25;;;0.90;;
71148;SDS011;59072;42.144;25.200;2023-02-22T10:36:21;2.58;;;0.90;;
71148;SDS011;59072;42.144;25.200;2023-02-22T10:39:12;2.53;;;0.98;;
71148;SDS011;59072;42.144;25.200;2023-02-22T10:41:56;3.53;;;1.20;;
71148;SDS011;59072;42.144;25.200;2023-02-22T10:44:30;4.25;;;1.15;;
71148;SDS011;59072;42.144;25.200;2023-02-22T10:46:59;4.50;;;2.33;;
71148;SDS011;59072;42.144;25.200;2023-02-22T10:49:27;2.15;;;1.15;;
71148;SDS011;59072;42.144;25.200;2023-02-22T10:52:09;1.50;;;0.90;;
71148;SDS011;59072;42.144;25.200;2023-02-22T10:54:39;3.17;;;1.30;;
71148;SDS011;59072;42.144;25.200;2023-02-22T10:57:09;4.15;;;1.30;;
71148;SDS011;59072;42.144;25.200;2023-02-22T10:59:37;5.28;;;2.40;;
71148;SDS011;59072;42.144;25.200;2023-02-22T11:02:23;4.25;;;1.90;;
71148;SDS011;59072;42.144;25.200;2023-02-22T11:04:54;7.35;;;4.72;;
71148;SDS011;59072;42.144;25.200;2023-02-22T11:10:12;2.33;;;1.17;;
71148;SDS011;59072;42.144;25.200;2023-02-22T11:12:55;5.65;;;1.10;;
71148;SDS011;59072;42.144;25.200;2023-02-22T11:17:52;5.50;;;1.50;;
71148;SDS011;59072;42.144;25.200;2023-02-22T11:20:23;2.08;;;1.10;;
71148;SDS011;59072;42.144;25.200;2023-02-22T11:22:52;2.45;;;1.10;;
71148;SDS011;59072;42.144;25.200;2023-02-22T11:25:20;4.07;;;1.20;;
71148;SDS011;59072;42.144;25.200;2023-02-22T11:27:50;4.38;;;1.40;;
71148;SDS011;59072;42.144;25.200;2023-02-22T11:32:52;3.42;;;1.17;;
71148;SDS011;59072;42.144;25.200;2023-02-22T11:37:53;6.18;;;1.70;;
71148;SDS011;59072;42.144;25.200;2023-02-22T11:40:37;3.15;;;1.42;;
71148;SDS011;59072;42.144;25.200;2023-02-22T11:43:17;3.65;;;1.75;;
71148;SDS011;59072;42.144;25.200;2023-02-22T11:48:33;5.30;;;1.70;;
71148;SDS011;59072;42.144;25.200;2023-02-22T11:53:31;1.70;;;1.10;;
71148;SDS011;59072;42.144;25.200;2023-02-22T12:01:55;3.20;;;1.30;;
71148;SDS011;59072;42.144;25.200;2023-02-22T12:07:20;6.13;;;1.92;;
71148;SDS011;59072;42.144;25.200;2023-02-22T12:13:04;2.28;;;1.23;;
71148;SDS011;59072;42.144;25.200;2023-02-22T12:20:51;3.63;;;1.30;;
71148;SDS011;59072;42.144;25.200;2023-02-22T12:23:40;4.60;;;1.35;;
71148;SDS011;59072;42.144;25.200;2023-02-22T12:26:14;3.33;;;1.73;;
71148;SDS011;59072;42.144;25.200;2023-02-22T12:37:03;5.40;;;2.00;;
71148;SDS011;59072;42.144;25.200;2023-02-22T12:42:41;3.50;;;1.73;;
71148;SDS011;59072;42.144;25.200;2023-02-22T12:50:42;4.90;;;2.25;;
71148;SDS011;59072;42.144;25.200;2023-02-22T12:55:54;2.63;;;1.88;;
71148;SDS011;59072;42.144;25.200;2023-02-22T12:58:30;3.92;;;2.00;;
71148;SDS011;59072;42.144;25.200;2023-02-22T13:01:04;4.53;;;1.90;;
71148;SDS011;59072;42.144;25.200;2023-02-22T13:03:36;3.17;;;1.80;;
71148;SDS011;59072;42.144;25.200;2023-02-22T13:11:42;3.60;;;1.63;;
71148;SDS011;59072;42.144;25.200;2023-02-22T13:22:30;4.28;;;1.83;;
71148;SDS011;59072;42.144;25.200;2023-02-22T13:27:37;4.25;;;1.52;;
71148;SDS011;59072;42.144;25.200;2023-02-22T13:30:15;4.20;;;1.50;;
71148;SDS011;59072;42.144;25.200;2023-02-22T13:38:10;3.08;;;1.63;;
71148;SDS011;59072;42.144;25.200;2023-02-22T13:46:16;17.45;;;2.22;;
71148;SDS011;59072;42.144;25.200;2023-02-22T13:54:06;4.50;;;1.85;;
71148;SDS011;59072;42.144;25.200;2023-02-22T14:01:49;2.50;;;1.60;;
71148;SDS011;59072;42.144;25.200;2023-02-22T14:04:23;4.70;;;1.75;;
71148;SDS011;59072;42.144;25.200;2023-02-22T14:06:59;3.58;;;1.52;;
71148;SDS011;59072;42.144;25.200;2023-02-22T14:17:35;4.72;;;2.40;;
71148;SDS011;59072;42.144;25.200;2023-02-22T14:20:49;4.18;;;1.88;;
71148;SDS011;59072;42.144;25.200;2023-02-22T14:22:55;5.50;;;2.20;;
71148;SDS011;59072;42.144;25.200;2023-02-22T14:25:41;5.28;;;1.98;;
71148;SDS011;59072;42.144;25.200;2023-02-22T14:31:11;2.35;;;1.50;;
71148;SDS011;59072;42.144;25.200;2023-02-22T14:36:47;11.80;;;2.13;;
71148;SDS011;59072;42.144;25.200;2023-02-22T14:39:30;7.57;;;2.08;;
71148;SDS011;59072;42.144;25.200;2023-02-22T14:47:23;5.18;;;2.00;;
71148;SDS011;59072;42.144;25.200;2023-02-22T14:49:54;4.07;;;1.60;;
71148;SDS011;59072;42.144;25.200;2023-02-22T14:52:30;2.15;;;1.60;;
71148;SDS011;59072;42.144;25.200;2023-02-22T14:55:05;2.88;;;1.45;;
71148;SDS011;59072;42.144;25.200;2023-02-22T14:57:50;4.00;;;1.60;;
71148;SDS011;59072;42.144;25.200;2023-02-22T15:00:42;3.83;;;1.63;;
71148;SDS011;59072;42.144;25.200;2023-02-22T15:05:42;3.43;;;1.43;;
71148;SDS011;59072;42.144;25.200;2023-02-22T15:08:07;3.78;;;1.88;;
71148;SDS011;59072;42.144;25.200;2023-02-22T15:13:28;3.88;;;1.90;;
71148;SDS011;59072;42.144;25.200;2023-02-22T15:16:00;3.58;;;1.73;;
71148;SDS011;59072;42.144;25.200;2023-02-22T15:20:57;14.30;;;3.53;;
71148;SDS011;59072;42.144;25.200;2023-02-22T15:23:29;6.47;;;2.80;;
71148;SDS011;59072;42.144;25.200;2023-02-22T15:26:05;5.80;;;2.45;;
71148;SDS011;59072;42.144;25.200;2023-02-22T15:28:34;5.68;;;2.92;;
71148;SDS011;59072;42.144;25.200;2023-02-22T15:31:15;6.95;;;3.03;;
71148;SDS011;59072;42.144;25.200;2023-02-22T15:36:39;13.50;;;5.78;;
71148;SDS011;59072;42.144;25.200;2023-02-22T15:39:05;29.05;;;12.13;;
71148;SDS011;59072;42.144;25.200;2023-02-22T15:42:26;102.15;;;36.10;;
71148;SDS011;59072;42.144;25.200;2023-02-22T15:44:48;107.25;;;36.50;;
71148;SDS011;59072;42.144;25.200;2023-02-22T15:47:36;104.53;;;36.22;;
71148;SDS011;59072;42.144;25.200;2023-02-22T15:55:47;94.07;;;31.13;;
71148;SDS011;59072;42.144;25.200;2023-02-22T15:58:22;97.90;;;32.95;;
71148;SDS011;59072;42.144;25.200;2023-02-22T16:03:24;82.70;;;31.35;;
71148;SDS011;59072;42.144;25.200;2023-02-22T16:05:53;71.75;;;31.73;;
71148;SDS011;59072;42.144;25.200;2023-02-22T16:08:21;72.78;;;27.10;;
71148;SDS011;59072;42.144;25.200;2023-02-22T16:13:27;47.55;;;18.40;;
71148;SDS011;59072;42.144;25.200;2023-02-22T16:15:57;25.75;;;11.40;;
71148;SDS011;59072;42.144;25.200;2023-02-22T16:18:51;20.20;;;6.93;;
71148;SDS011;59072;42.144;25.200;2023-02-22T16:21:18;24.17;;;12.25;;
71148;SDS011;59072;42.144;25.200;2023-02-22T16:28:52;12.40;;;6.38;;
71148;SDS011;59072;42.144;25.200;2023-02-22T16:31:22;11.95;;;6.90;;
71148;SDS011;59072;42.144;25.200;2023-02-22T16:34:06;9.43;;;5.70;;
71148;SDS011;59072;42.144;25.200;2023-02-22T16:36:45;16.60;;;8.70;;
71148;SDS011;59072;42.144;25.200;2023-02-22T16:39:21;22.92;;;11.77;;
71148;SDS011;59072;42.144;25.200;2023-02-22T16:41:52;19.00;;;9.00;;
71148;SDS011;59072;42.144;25.200;2023-02-22T16:44:19;42.13;;;17.63;;
71148;SDS011;59072;42.144;25.200;2023-02-22T16:46:47;21.58;;;11.43;;
71148;SDS011;59072;42.144;25.200;2023-02-22T16:49:12;16.17;;;7.28;;
71148;SDS011;59072;42.144;25.200;2023-02-22T16:51:55;8.45;;;3.60;;
71148;SDS011;59072;42.144;25.200;2023-02-22T16:54:30;11.63;;;4.00;;
71148;SDS011;59072;42.144;25.200;2023-02-22T16:56:58;11.35;;;3.50;;
71148;SDS011;59072;42.144;25.200;2023-02-22T16:59:27;6.72;;;3.50;;
71148;SDS011;59072;42.144;25.200;2023-02-22T17:01:56;7.95;;;3.28;;
71148;SDS011;59072;42.144;25.200;2023-02-22T17:04:23;7.53;;;3.30;;
71148;SDS011;59072;42.144;25.200;2023-02-22T17:06:50;7.15;;;2.90;;
71148;SDS011;59072;42.144;25.200;2023-02-22T17:09:15;10.15;;;4.00;;
71148;SDS011;59072;42.144;25.200;2023-02-22T17:11:41;8.07;;;3.33;;
71148;SDS011;59072;42.144;25.200;2023-02-22T17:14:08;14.73;;;3.50;;
71148;SDS011;59072;42.144;25.200;2023-02-22T17:16:34;7.13;;;3.50;;
71148;SDS011;59072;42.144;25.200;2023-02-22T17:19:00;12.40;;;4.95;;
71148;SDS011;59072;42.144;25.200;2023-02-22T17:21:31;9.65;;;4.43;;
71148;SDS011;59072;42.144;25.200;2023-02-22T17:23:56;12.52;;;5.82;;
71148;SDS011;59072;42.144;25.200;2023-02-22T17:26:22;12.25;;;7.35;;
71148;SDS011;59072;42.144;25.200;2023-02-22T17:28:50;10.63;;;5.57;;
71148;SDS011;59072;42.144;25.200;2023-02-22T17:31:20;10.57;;;5.88;;
71148;SDS011;59072;42.144;25.200;2023-02-22T17:33:48;9.57;;;5.40;;
71148;SDS011;59072;42.144;25.200;2023-02-22T17:36:15;144.85;;;79.00;;
71148;SDS011;59072;42.144;25.200;2023-02-22T17:38:40;105.65;;;61.70;;
71148;SDS011;59072;42.144;25.200;2023-02-22T17:41:08;151.75;;;79.25;;
71148;SDS011;59072;42.144;25.200;2023-02-22T17:43:33;102.88;;;87.15;;
71148;SDS011;59072;42.144;25.200;2023-02-22T17:45:59;53.92;;;48.55;;
71148;SDS011;59072;42.144;25.200;2023-02-22T17:48:26;18.58;;;13.10;;
71148;SDS011;59072;42.144;25.200;2023-02-22T17:50:51;21.98;;;15.35;;
71148;SDS011;59072;42.144;25.200;2023-02-22T17:53:20;22.88;;;16.33;;
71148;SDS011;59072;42.144;25.200;2023-02-22T17:55:48;16.25;;;9.90;;
71148;SDS011;59072;42.144;25.200;2023-02-22T17:58:14;15.73;;;10.13;;